createdAt,value
2023-02-03T00:00:31.485Z,22.87
2023-02-03T00:01:07.322Z,22.87
2023-02-03T00:01:43.298Z,22.87
2023-02-03T00:02:19.159Z,22.87
2023-02-03T00:02:55.618Z,22.84
2023-02-03T00:03:31.816Z,22.89
2023-02-03T00:04:08.639Z,22.87
2023-02-03T00:04:44.800Z,22.88
2023-02-03T00:05:20.372Z,22.89
2023-02-03T00:05:56.284Z,22.90
2023-02-03T00:06:32.436Z,22.89
2023-02-03T00:07:08.715Z,22.90
2023-02-03T00:07:45.012Z,22.88
2023-02-03T00:08:21.494Z,22.88
2023-02-03T00:08:58.302Z,22.87
2023-02-03T00:09:34.047Z,22.89
2023-02-03T00:10:10.537Z,22.87
2023-02-03T00:10:46.295Z,22.88
2023-02-03T00:11:22.153Z,22.87
2023-02-03T00:11:58.652Z,22.89
2023-02-03T00:12:34.947Z,22.89
2023-02-03T00:13:11.138Z,22.90
2023-02-03T00:13:47.300Z,22.88
2023-02-03T00:14:24.000Z,22.89
2023-02-03T00:15:00.583Z,22.89
2023-02-03T00:15:38.441Z,22.89
2023-02-03T00:16:14.556Z,22.90
2023-02-03T00:16:50.179Z,22.87
2023-02-03T00:17:26.614Z,22.89
2023-02-03T00:18:02.995Z,22.90
2023-02-03T00:18:38.841Z,22.90
2023-02-03T00:19:17.166Z,22.88
2023-02-03T00:19:52.734Z,22.89
2023-02-03T00:20:29.411Z,22.89
2023-02-03T00:21:05.531Z,22.89
2023-02-03T00:21:41.654Z,22.90
2023-02-03T00:22:17.266Z,22.90
2023-02-03T00:22:53.999Z,22.89
2023-02-03T00:23:30.171Z,22.89
2023-02-03T00:24:06.354Z,22.89
2023-02-03T00:24:42.858Z,22.89
2023-02-03T00:25:19.415Z,22.88
2023-02-03T00:25:55.532Z,22.89
2023-02-03T00:26:31.527Z,22.89
2023-02-03T00:27:07.843Z,22.88
2023-02-03T00:27:43.909Z,22.88
2023-02-03T00:28:20.079Z,22.88
2023-02-03T00:28:56.239Z,22.89
2023-02-03T00:29:32.424Z,22.89
2023-02-03T00:30:08.889Z,22.90
2023-02-03T00:30:44.906Z,22.85
2023-02-03T00:31:20.879Z,22.86
2023-02-03T00:31:57.794Z,22.87
2023-02-03T00:32:34.068Z,22.88
2023-02-03T00:33:10.062Z,22.83
2023-02-03T00:33:46.494Z,22.87
2023-02-03T00:34:23.077Z,22.86
2023-02-03T00:34:59.153Z,22.87
2023-02-03T00:35:35.599Z,22.87
2023-02-03T00:36:11.891Z,22.90
2023-02-03T00:36:47.599Z,22.89
2023-02-03T00:37:23.533Z,22.88
2023-02-03T00:37:59.807Z,22.87
2023-02-03T00:38:36.505Z,22.89
2023-02-03T00:39:12.755Z,22.86
2023-02-03T00:39:49.135Z,22.89
2023-02-03T00:40:25.756Z,22.87
2023-02-03T00:41:01.896Z,22.87
2023-02-03T00:41:38.361Z,22.85
2023-02-03T00:42:15.376Z,22.87
2023-02-03T00:42:51.973Z,22.88
2023-02-03T00:43:28.867Z,22.86
2023-02-03T00:44:05.341Z,22.86
2023-02-03T00:44:42.814Z,22.83
2023-02-03T00:45:19.338Z,22.88
2023-02-03T00:45:55.073Z,22.90
2023-02-03T00:46:30.472Z,22.90
2023-02-03T00:47:06.701Z,22.90
2023-02-03T00:47:43.594Z,22.88
2023-02-03T00:48:19.736Z,22.85
2023-02-03T00:48:55.949Z,22.88
2023-02-03T00:49:32.529Z,22.87
2023-02-03T00:50:08.504Z,22.86
2023-02-03T00:50:45.040Z,22.86
2023-02-03T00:51:21.042Z,22.88
2023-02-03T00:51:58.754Z,22.89
2023-02-03T00:52:35.484Z,22.87
2023-02-03T00:53:12.222Z,22.88
2023-02-03T00:53:49.645Z,22.91
2023-02-03T00:54:26.784Z,22.88
2023-02-03T00:55:03.390Z,22.90
2023-02-03T00:55:40.728Z,22.83
2023-02-03T00:56:16.723Z,22.83
2023-02-03T00:56:52.359Z,22.86
2023-02-03T00:57:29.163Z,22.87
2023-02-03T00:58:05.672Z,22.86
2023-02-03T00:58:42.051Z,22.87
2023-02-03T00:59:18.543Z,22.88
2023-02-03T00:59:55.289Z,22.87
2023-02-03T01:00:31.578Z,22.88
2023-02-03T01:01:07.161Z,22.88
2023-02-03T01:01:43.095Z,22.90
2023-02-03T01:02:19.787Z,22.91
2023-02-03T01:02:56.185Z,22.85
2023-02-03T01:03:32.086Z,22.86
2023-02-03T01:04:08.265Z,22.88
2023-02-03T01:04:44.990Z,22.86
2023-02-03T01:05:20.590Z,22.79
2023-02-03T01:05:56.867Z,22.78
2023-02-03T01:06:32.638Z,22.79
2023-02-03T01:07:09.205Z,22.78
2023-02-03T01:07:45.536Z,22.83
2023-02-03T01:08:21.971Z,22.86
2023-02-03T01:08:58.610Z,22.86
2023-02-03T01:09:34.913Z,22.87
2023-02-03T01:10:11.410Z,22.88
2023-02-03T01:10:47.863Z,22.88
2023-02-03T01:11:24.079Z,22.89
2023-02-03T01:11:59.193Z,22.89
2023-02-03T01:12:35.688Z,22.87
2023-02-03T01:13:11.983Z,22.88
2023-02-03T01:13:48.621Z,22.88
2023-02-03T01:14:25.540Z,22.89
2023-02-03T01:15:03.723Z,22.87
2023-02-03T01:15:39.865Z,22.87
2023-02-03T01:16:16.552Z,22.86
2023-02-03T01:16:53.074Z,22.89
2023-02-03T01:17:28.743Z,22.89
2023-02-03T01:18:05.166Z,22.88
2023-02-03T01:18:41.483Z,22.92
2023-02-03T01:19:18.058Z,22.93
2023-02-03T01:19:54.499Z,22.92
2023-02-03T01:20:31.323Z,22.90
2023-02-03T01:21:08.060Z,22.91
2023-02-03T01:21:44.415Z,22.90
2023-02-03T01:22:20.028Z,22.90
2023-02-03T01:22:55.991Z,22.89
2023-02-03T01:23:31.846Z,22.88
2023-02-03T01:24:08.040Z,22.88
2023-02-03T01:24:44.281Z,22.88
2023-02-03T01:25:20.830Z,22.87
2023-02-03T01:25:56.351Z,22.85
2023-02-03T01:26:32.069Z,22.88
2023-02-03T01:27:07.703Z,22.89
2023-02-03T01:27:44.427Z,22.87
2023-02-03T01:28:20.954Z,22.89
2023-02-03T01:28:57.697Z,22.91
2023-02-03T01:29:34.008Z,22.90
2023-02-03T01:30:10.412Z,22.89
2023-02-03T01:30:46.864Z,22.89
2023-02-03T01:31:23.333Z,22.90
2023-02-03T01:31:59.297Z,22.91
2023-02-03T01:32:36.151Z,22.89
2023-02-03T01:33:12.440Z,22.88
2023-02-03T01:33:48.551Z,22.91
2023-02-03T01:34:25.458Z,22.87
2023-02-03T01:35:02.000Z,22.88
2023-02-03T01:35:38.138Z,22.90
2023-02-03T01:36:14.856Z,22.89
2023-02-03T01:36:50.563Z,22.91
2023-02-03T01:37:26.341Z,22.91
2023-02-03T01:38:03.187Z,22.88
2023-02-03T01:38:39.375Z,22.90
2023-02-03T01:39:15.363Z,22.90
2023-02-03T01:39:51.478Z,22.90
2023-02-03T01:40:28.255Z,22.90
2023-02-03T01:41:05.379Z,22.91
2023-02-03T01:41:43.429Z,22.90
2023-02-03T01:42:20.061Z,22.88
2023-02-03T01:42:55.868Z,22.89
2023-02-03T01:43:32.312Z,22.90
2023-02-03T01:44:08.641Z,22.90
2023-02-03T01:44:44.669Z,22.91
2023-02-03T01:45:20.956Z,22.89
2023-02-03T01:45:57.787Z,22.89
2023-02-03T01:46:33.636Z,22.88
2023-02-03T01:47:10.202Z,22.90
2023-02-03T01:47:46.258Z,22.89
2023-02-03T01:48:21.945Z,22.91
2023-02-03T01:48:58.181Z,22.91
2023-02-03T01:49:34.526Z,22.89
2023-02-03T01:50:11.098Z,22.88
2023-02-03T01:50:47.196Z,22.90
2023-02-03T01:51:23.447Z,22.89
2023-02-03T01:52:00.146Z,22.89
2023-02-03T01:52:36.132Z,22.88
2023-02-03T01:53:12.089Z,22.91
2023-02-03T01:53:47.943Z,22.89
2023-02-03T01:54:24.089Z,22.90
2023-02-03T01:54:59.889Z,22.89
2023-02-03T01:55:36.615Z,22.89
2023-02-03T01:56:13.270Z,22.89
2023-02-03T01:56:49.010Z,22.91
2023-02-03T01:57:25.348Z,22.89
2023-02-03T01:58:01.843Z,22.91
2023-02-03T01:58:38.276Z,22.91
2023-02-03T01:59:13.875Z,22.90
2023-02-03T01:59:49.697Z,22.89
2023-02-03T02:00:26.710Z,22.91
2023-02-03T02:01:03.409Z,22.90
2023-02-03T02:01:39.935Z,22.89
2023-02-03T02:02:16.558Z,22.91
2023-02-03T02:02:53.132Z,22.91
2023-02-03T02:03:29.523Z,22.89
2023-02-03T02:04:05.946Z,22.91
2023-02-03T02:04:41.945Z,22.89
2023-02-03T02:05:18.834Z,22.90
2023-02-03T02:05:55.280Z,22.90
2023-02-03T02:06:32.217Z,22.90
2023-02-03T02:07:08.167Z,22.89
2023-02-03T02:07:44.989Z,22.88
2023-02-03T02:08:21.878Z,22.89
2023-02-03T02:08:58.444Z,22.90
2023-02-03T02:09:34.393Z,22.90
2023-02-03T02:10:10.290Z,22.90
2023-02-03T02:10:46.559Z,22.92
2023-02-03T02:11:22.803Z,22.90
2023-02-03T02:11:59.237Z,22.89
2023-02-03T02:12:35.543Z,22.90
2023-02-03T02:13:11.111Z,22.91
2023-02-03T02:13:47.716Z,22.89
2023-02-03T02:14:23.465Z,22.91
2023-02-03T02:14:59.424Z,22.89
2023-02-03T02:15:36.935Z,22.90
2023-02-03T02:16:13.239Z,22.90
2023-02-03T02:16:49.831Z,22.90
2023-02-03T02:17:25.861Z,22.89
2023-02-03T02:18:02.710Z,22.90
2023-02-03T02:18:39.515Z,22.90
2023-02-03T02:19:15.825Z,22.91
2023-02-03T02:19:52.278Z,22.90
2023-02-03T02:20:28.299Z,22.91
2023-02-03T02:21:04.213Z,22.90
2023-02-03T02:21:40.264Z,22.89
2023-02-03T02:22:16.860Z,22.92
2023-02-03T02:22:53.857Z,22.91
2023-02-03T02:23:30.151Z,22.91
2023-02-03T02:24:06.582Z,22.90
2023-02-03T02:24:43.960Z,22.91
2023-02-03T02:25:20.725Z,22.90
2023-02-03T02:25:56.677Z,22.91
2023-02-03T02:26:32.525Z,22.92
2023-02-03T02:27:08.307Z,22.91
2023-02-03T02:27:44.752Z,22.88
2023-02-03T02:28:21.262Z,22.87
2023-02-03T02:28:58.057Z,22.88
2023-02-03T02:29:34.368Z,22.89
2023-02-03T02:30:11.022Z,22.90
2023-02-03T02:30:47.779Z,22.90
2023-02-03T02:31:23.685Z,22.91
2023-02-03T02:31:59.317Z,22.91
2023-02-03T02:32:35.734Z,22.91
2023-02-03T02:33:11.856Z,22.87
2023-02-03T02:33:48.322Z,22.86
2023-02-03T02:34:24.262Z,22.88
2023-02-03T02:35:00.988Z,22.88
2023-02-03T02:35:35.997Z,22.87
2023-02-03T02:36:11.850Z,22.89
2023-02-03T02:36:48.366Z,22.89
2023-02-03T02:37:25.052Z,22.88
2023-02-03T02:38:01.742Z,22.89
2023-02-03T02:38:37.883Z,22.90
2023-02-03T02:39:14.599Z,22.89
2023-02-03T02:39:51.566Z,22.89
2023-02-03T02:40:28.836Z,22.91
2023-02-03T02:41:05.381Z,22.91
2023-02-03T02:41:41.404Z,22.92
2023-02-03T02:42:18.342Z,22.90
2023-02-03T02:42:55.066Z,22.91
2023-02-03T02:43:31.528Z,22.90
2023-02-03T02:44:07.585Z,22.89
2023-02-03T02:44:44.443Z,22.90
2023-02-03T02:45:20.864Z,22.90
2023-02-03T02:45:56.886Z,22.90
2023-02-03T02:46:33.319Z,22.91
2023-02-03T02:47:08.825Z,22.91
2023-02-03T02:47:45.732Z,22.92
2023-02-03T02:48:22.196Z,22.92
2023-02-03T02:48:58.398Z,22.93
2023-02-03T02:49:34.711Z,22.92
2023-02-03T02:50:11.070Z,22.90
2023-02-03T02:50:47.333Z,22.92
2023-02-03T02:51:23.192Z,22.90
2023-02-03T02:51:58.972Z,22.91
2023-02-03T02:52:35.045Z,22.89
2023-02-03T02:53:11.507Z,22.90
2023-02-03T02:53:47.744Z,22.89
2023-02-03T02:54:24.250Z,22.90
2023-02-03T02:55:01.511Z,22.88
2023-02-03T02:55:38.429Z,22.88
2023-02-03T02:56:15.740Z,22.89
2023-02-03T02:56:52.067Z,22.89
2023-02-03T02:57:27.994Z,22.91
2023-02-03T02:58:03.256Z,22.91
2023-02-03T02:58:40.119Z,22.92
2023-02-03T02:59:16.328Z,22.92
2023-02-03T02:59:52.593Z,22.91
2023-02-03T03:00:29.397Z,22.90
2023-02-03T03:01:05.921Z,22.91
2023-02-03T03:01:43.030Z,22.92
2023-02-03T03:02:19.304Z,22.92
2023-02-03T03:02:55.411Z,22.92
2023-02-03T03:03:31.747Z,22.90
2023-02-03T03:04:08.969Z,22.93
2023-02-03T03:04:44.963Z,22.92
2023-02-03T03:05:21.055Z,22.90
2023-02-03T03:05:57.031Z,22.92
2023-02-03T03:06:33.187Z,22.89
2023-02-03T03:07:09.882Z,22.88
2023-02-03T03:07:46.154Z,22.89
2023-02-03T03:08:22.463Z,22.89
2023-02-03T03:08:57.882Z,22.90
2023-02-03T03:09:34.303Z,22.91
2023-02-03T03:10:10.489Z,22.91
2023-02-03T03:10:47.021Z,22.90
2023-02-03T03:11:23.761Z,22.91
2023-02-03T03:11:59.573Z,22.92
2023-02-03T03:12:36.203Z,22.91
2023-02-03T03:13:12.589Z,22.92
2023-02-03T03:13:48.618Z,22.94
2023-02-03T03:14:24.119Z,22.95
2023-02-03T03:15:00.432Z,22.93
2023-02-03T03:15:38.880Z,22.91
2023-02-03T03:16:15.837Z,22.94
2023-02-03T03:16:52.128Z,22.95
2023-02-03T03:17:28.115Z,22.95
2023-02-03T03:18:04.534Z,22.94
2023-02-03T03:18:40.920Z,22.94
2023-02-03T03:19:16.911Z,22.92
2023-02-03T03:19:52.653Z,22.92
2023-02-03T03:20:28.694Z,22.94
2023-02-03T03:21:04.901Z,22.92
2023-02-03T03:21:41.200Z,22.92
2023-02-03T03:22:17.422Z,22.92
2023-02-03T03:22:54.472Z,22.93
2023-02-03T03:23:30.835Z,22.90
2023-02-03T03:24:07.259Z,22.92
2023-02-03T03:24:43.279Z,22.93
2023-02-03T03:25:18.651Z,22.95
2023-02-03T03:25:55.087Z,22.97
2023-02-03T03:26:32.035Z,22.95
2023-02-03T03:27:08.613Z,22.91
2023-02-03T03:27:45.541Z,22.93
2023-02-03T03:28:21.488Z,22.92
2023-02-03T03:28:57.525Z,22.91
2023-02-03T03:29:33.779Z,22.91
2023-02-03T03:30:10.163Z,22.91
2023-02-03T03:30:45.904Z,22.90
2023-02-03T03:31:22.627Z,22.91
2023-02-03T03:31:58.804Z,22.90
2023-02-03T03:32:35.133Z,22.91
2023-02-03T03:33:11.767Z,22.91
2023-02-03T03:33:47.980Z,22.90
2023-02-03T03:34:24.645Z,22.90
2023-02-03T03:35:00.820Z,22.91
2023-02-03T03:35:37.108Z,22.88
2023-02-03T03:36:13.053Z,22.89
2023-02-03T03:36:49.856Z,22.91
2023-02-03T03:37:26.187Z,22.91
2023-02-03T03:38:02.697Z,22.92
2023-02-03T03:38:38.924Z,22.89
2023-02-03T03:39:15.630Z,22.90
2023-02-03T03:39:51.275Z,22.92
2023-02-03T03:40:27.983Z,22.90
2023-02-03T03:41:04.231Z,22.91
2023-02-03T03:41:40.080Z,22.91
2023-02-03T03:42:16.052Z,22.93
2023-02-03T03:42:51.620Z,22.93
2023-02-03T03:43:28.552Z,22.93
2023-02-03T03:44:04.745Z,22.93
2023-02-03T03:44:40.761Z,22.92
2023-02-03T03:45:16.777Z,22.92
2023-02-03T03:45:53.266Z,22.91
2023-02-03T03:46:29.700Z,22.92
2023-02-03T03:47:06.000Z,22.93
2023-02-03T03:47:42.076Z,22.92
2023-02-03T03:48:18.458Z,22.88
2023-02-03T03:48:54.927Z,22.91
2023-02-03T03:49:31.421Z,22.92
2023-02-03T03:50:08.109Z,22.94
2023-02-03T03:50:43.851Z,22.93
2023-02-03T03:51:19.820Z,22.92
2023-02-03T03:51:55.959Z,22.93
2023-02-03T03:52:32.545Z,22.92
2023-02-03T03:53:08.511Z,22.93
2023-02-03T03:53:44.638Z,22.94
2023-02-03T03:54:20.902Z,22.93
2023-02-03T03:54:57.123Z,22.90
2023-02-03T03:55:33.852Z,22.91
2023-02-03T03:56:09.972Z,22.93
2023-02-03T03:56:46.636Z,22.92
2023-02-03T03:57:22.493Z,22.92
2023-02-03T03:57:58.836Z,22.93
2023-02-03T03:58:34.631Z,22.92
2023-02-03T03:59:11.317Z,22.91
2023-02-03T03:59:47.637Z,22.91
2023-02-03T04:00:24.520Z,22.93
2023-02-03T04:01:00.651Z,22.94
2023-02-03T04:01:37.458Z,22.92
2023-02-03T04:02:14.058Z,22.93
2023-02-03T04:02:50.185Z,22.90
2023-02-03T04:03:25.912Z,22.91
2023-02-03T04:04:01.853Z,22.91
2023-02-03T04:04:39.880Z,22.93
2023-02-03T04:05:17.043Z,22.92
2023-02-03T04:05:53.653Z,22.93
2023-02-03T04:06:30.505Z,22.92
2023-02-03T04:07:06.980Z,22.91
2023-02-03T04:07:43.237Z,22.88
2023-02-03T04:08:18.990Z,22.92
2023-02-03T04:08:55.040Z,22.92
2023-02-03T04:09:31.234Z,22.93
2023-02-03T04:10:07.651Z,22.93
2023-02-03T04:10:44.114Z,22.95
2023-02-03T04:11:20.563Z,22.94
2023-02-03T04:11:57.185Z,22.93
2023-02-03T04:12:33.029Z,22.95
2023-02-03T04:13:09.693Z,22.93
2023-02-03T04:13:45.320Z,22.92
2023-02-03T04:14:22.020Z,22.90
2023-02-03T04:14:58.551Z,22.91
2023-02-03T04:15:37.408Z,22.90
2023-02-03T04:16:13.566Z,22.90
2023-02-03T04:16:49.842Z,22.92
2023-02-03T04:17:25.934Z,22.91
2023-02-03T04:18:01.875Z,22.93
2023-02-03T04:18:38.039Z,22.92
2023-02-03T04:19:14.374Z,22.92
2023-02-03T04:19:50.301Z,22.90
2023-02-03T04:20:28.200Z,22.91
2023-02-03T04:21:05.416Z,22.92
2023-02-03T04:21:42.356Z,22.92
2023-02-03T04:22:18.120Z,22.90
2023-02-03T04:22:53.771Z,22.89
2023-02-03T04:23:29.756Z,22.92
2023-02-03T04:24:06.444Z,22.89
2023-02-03T04:24:42.947Z,22.91
2023-02-03T04:25:18.753Z,22.92
2023-02-03T04:25:55.056Z,22.93
2023-02-03T04:26:31.178Z,22.94
2023-02-03T04:27:07.088Z,22.92
2023-02-03T04:27:43.263Z,22.93
2023-02-03T04:28:19.098Z,22.93
2023-02-03T04:28:55.573Z,22.91
2023-02-03T04:29:32.319Z,22.94
2023-02-03T04:30:09.032Z,22.90
2023-02-03T04:30:45.545Z,22.89
2023-02-03T04:31:21.889Z,22.94
2023-02-03T04:31:58.316Z,22.93
2023-02-03T04:32:33.902Z,22.95
2023-02-03T04:33:09.349Z,22.95
2023-02-03T04:33:46.180Z,22.96
2023-02-03T04:34:22.603Z,22.94
2023-02-03T04:34:58.224Z,22.95
2023-02-03T04:35:34.343Z,22.95
2023-02-03T04:36:11.006Z,22.95
2023-02-03T04:36:48.332Z,22.93
2023-02-03T04:37:25.293Z,22.94
2023-02-03T04:38:01.226Z,22.94
2023-02-03T04:38:36.655Z,22.94
2023-02-03T04:39:13.421Z,22.94
2023-02-03T04:39:50.020Z,22.92
2023-02-03T04:40:25.804Z,22.93
2023-02-03T04:41:02.437Z,22.92
2023-02-03T04:41:38.999Z,22.93
2023-02-03T04:42:15.853Z,22.94
2023-02-03T04:42:51.939Z,22.93
2023-02-03T04:43:28.244Z,22.92
2023-02-03T04:44:04.210Z,22.95
2023-02-03T04:44:41.034Z,22.93
2023-02-03T04:45:17.150Z,22.89
2023-02-03T04:45:54.012Z,22.95
2023-02-03T04:46:30.024Z,22.95
2023-02-03T04:47:06.590Z,22.95
2023-02-03T04:47:42.815Z,22.94
2023-02-03T04:48:19.223Z,22.92
2023-02-03T04:48:54.816Z,22.94
2023-02-03T04:49:31.072Z,22.91
2023-02-03T04:50:07.616Z,22.92
2023-02-03T04:50:43.476Z,22.92
2023-02-03T04:51:20.081Z,22.93
2023-02-03T04:51:56.320Z,22.91
2023-02-03T04:52:33.315Z,22.93
2023-02-03T04:53:09.818Z,22.93
2023-02-03T04:53:46.007Z,22.93
2023-02-03T04:54:21.767Z,22.93
2023-02-03T04:54:57.801Z,22.94
2023-02-03T04:55:33.666Z,22.93
2023-02-03T04:56:10.587Z,22.95
2023-02-03T04:56:46.989Z,22.94
2023-02-03T04:57:23.725Z,22.94
2023-02-03T04:58:00.052Z,22.96
2023-02-03T04:58:36.298Z,22.94
2023-02-03T04:59:12.729Z,22.96
2023-02-03T04:59:48.168Z,22.95
2023-02-03T05:00:24.680Z,22.94
2023-02-03T05:01:01.520Z,22.94
2023-02-03T05:01:38.140Z,22.90
2023-02-03T05:02:14.603Z,22.93
2023-02-03T05:02:51.222Z,22.91
2023-02-03T05:03:26.802Z,22.91
2023-02-03T05:04:02.553Z,22.94
2023-02-03T05:04:39.045Z,22.94
2023-02-03T05:05:15.316Z,22.93
2023-02-03T05:05:51.811Z,22.92
2023-02-03T05:06:27.705Z,22.91
2023-02-03T05:07:04.516Z,22.92
2023-02-03T05:07:40.738Z,22.91
2023-02-03T05:08:17.163Z,22.93
2023-02-03T05:08:53.006Z,22.93
2023-02-03T05:09:28.475Z,22.94
2023-02-03T05:10:04.838Z,22.94
2023-02-03T05:10:41.332Z,22.93
2023-02-03T05:11:17.787Z,22.93
2023-02-03T05:11:54.253Z,22.93
2023-02-03T05:12:30.541Z,22.97
2023-02-03T05:13:07.696Z,22.95
2023-02-03T05:13:43.308Z,22.94
2023-02-03T05:14:19.295Z,22.93
2023-02-03T05:14:55.007Z,22.93
2023-02-03T05:15:31.728Z,22.93
2023-02-03T05:16:08.210Z,22.93
2023-02-03T05:16:44.431Z,22.93
2023-02-03T05:17:20.870Z,22.90
2023-02-03T05:17:57.129Z,22.92
2023-02-03T05:18:33.316Z,22.93
2023-02-03T05:19:10.015Z,22.95
2023-02-03T05:19:45.967Z,22.94
2023-02-03T05:20:21.232Z,22.93
2023-02-03T05:20:57.591Z,22.93
2023-02-03T05:21:33.463Z,22.94
2023-02-03T05:22:09.813Z,22.94
2023-02-03T05:22:45.847Z,22.95
2023-02-03T05:23:22.515Z,22.95
2023-02-03T05:23:59.024Z,22.95
2023-02-03T05:24:35.650Z,22.93
2023-02-03T05:25:11.240Z,22.94
2023-02-03T05:25:47.158Z,22.93
2023-02-03T05:26:23.369Z,22.94
2023-02-03T05:26:59.757Z,22.93
2023-02-03T05:27:36.122Z,22.93
2023-02-03T05:28:12.484Z,22.93
2023-02-03T05:28:50.201Z,22.95
2023-02-03T05:29:25.891Z,22.94
2023-02-03T05:30:03.727Z,22.96
2023-02-03T05:30:39.282Z,22.95
2023-02-03T05:31:15.390Z,22.94
2023-02-03T05:31:51.865Z,22.94
2023-02-03T05:32:28.569Z,22.94
2023-02-03T05:33:04.495Z,22.94
2023-02-03T05:33:41.326Z,22.94
2023-02-03T05:34:17.075Z,22.95
2023-02-03T05:34:53.381Z,22.94
2023-02-03T05:35:29.591Z,22.93
2023-02-03T05:36:05.485Z,22.94
2023-02-03T05:36:41.370Z,22.93
2023-02-03T05:37:17.245Z,22.94
2023-02-03T05:37:54.050Z,22.92
2023-02-03T05:38:30.029Z,22.91
2023-02-03T05:39:06.463Z,22.92
2023-02-03T05:39:43.269Z,22.91
2023-02-03T05:40:19.417Z,22.95
2023-02-03T05:40:56.300Z,22.97
2023-02-03T05:41:32.377Z,22.96
2023-02-03T05:42:07.809Z,22.90
2023-02-03T05:42:44.365Z,22.93
2023-02-03T05:43:20.143Z,22.93
2023-02-03T05:43:56.727Z,22.92
2023-02-03T05:44:32.489Z,22.95
2023-02-03T05:45:09.148Z,22.93
2023-02-03T05:45:45.339Z,22.95
2023-02-03T05:46:21.795Z,22.97
2023-02-03T05:46:58.030Z,22.95
2023-02-03T05:47:33.824Z,22.94
2023-02-03T05:48:10.058Z,22.97
2023-02-03T05:48:45.861Z,22.95
2023-02-03T05:49:22.669Z,22.94
2023-02-03T05:49:59.229Z,22.94
2023-02-03T05:50:36.855Z,22.92
2023-02-03T05:51:13.916Z,22.93
2023-02-03T05:51:50.500Z,22.92
2023-02-03T05:52:26.708Z,22.92
2023-02-03T05:53:02.493Z,22.91
2023-02-03T05:53:38.748Z,22.92
2023-02-03T05:54:15.535Z,22.91
2023-02-03T05:54:51.836Z,22.93
2023-02-03T05:55:27.932Z,22.92
2023-02-03T05:56:04.375Z,22.92
2023-02-03T05:56:41.315Z,22.93
2023-02-03T05:57:17.474Z,22.95
2023-02-03T05:57:53.540Z,22.96
2023-02-03T05:58:29.171Z,22.95
2023-02-03T05:59:05.010Z,22.95
2023-02-03T05:59:41.935Z,22.95
2023-02-03T06:00:18.626Z,22.95
2023-02-03T06:00:54.878Z,22.95
2023-02-03T06:01:30.965Z,22.96
2023-02-03T06:02:07.476Z,22.93
2023-02-03T06:02:43.627Z,22.94
2023-02-03T06:03:19.596Z,22.95
2023-02-03T06:03:55.593Z,22.95
2023-02-03T06:04:32.364Z,22.96
2023-02-03T06:05:09.138Z,22.93
2023-02-03T06:05:45.050Z,22.94
2023-02-03T06:06:21.316Z,22.94
2023-02-03T06:06:57.418Z,22.93
2023-02-03T06:07:34.206Z,22.94
2023-02-03T06:08:10.421Z,22.94
2023-02-03T06:08:45.725Z,22.97
2023-02-03T06:09:21.947Z,22.94
2023-02-03T06:09:58.637Z,22.93
2023-02-03T06:10:34.835Z,22.94
2023-02-03T06:11:11.261Z,22.93
2023-02-03T06:11:47.635Z,22.95
2023-02-03T06:12:24.454Z,22.95
2023-02-03T06:13:00.986Z,22.93
2023-02-03T06:13:37.019Z,22.94
2023-02-03T06:14:12.494Z,22.95
2023-02-03T06:14:48.804Z,22.95
2023-02-03T06:15:25.391Z,22.96
2023-02-03T06:16:01.766Z,22.93
2023-02-03T06:16:38.932Z,22.96
2023-02-03T06:17:15.430Z,22.95
2023-02-03T06:17:52.115Z,22.96
2023-02-03T06:18:28.003Z,22.95
2023-02-03T06:19:03.191Z,22.95
2023-02-03T06:19:39.429Z,22.95
2023-02-03T06:20:16.175Z,22.96
2023-02-03T06:20:52.345Z,22.94
2023-02-03T06:21:28.749Z,22.94
2023-02-03T06:22:04.677Z,22.93
2023-02-03T06:22:41.405Z,22.94
2023-02-03T06:23:17.791Z,22.94
2023-02-03T06:23:54.194Z,22.95
2023-02-03T06:24:29.904Z,22.96
2023-02-03T06:25:06.479Z,22.98
2023-02-03T06:25:42.907Z,22.96
2023-02-03T06:26:19.390Z,22.95
2023-02-03T06:26:55.493Z,22.93
2023-02-03T06:27:31.338Z,22.94
2023-02-03T06:28:07.609Z,22.94
2023-02-03T06:28:43.625Z,22.93
2023-02-03T06:29:20.037Z,22.93
2023-02-03T06:29:54.940Z,22.96
2023-02-03T06:30:30.567Z,22.95
2023-02-03T06:31:05.874Z,22.94
2023-02-03T06:31:42.965Z,22.97
2023-02-03T06:32:19.705Z,22.94
2023-02-03T06:32:55.762Z,22.96
2023-02-03T06:33:32.255Z,22.94
2023-02-03T06:34:07.823Z,22.92
2023-02-03T06:34:43.554Z,22.94
2023-02-03T06:35:19.442Z,22.96
2023-02-03T06:35:55.722Z,22.91
2023-02-03T06:36:31.609Z,22.95
2023-02-03T06:37:07.830Z,22.97
2023-02-03T06:37:44.300Z,22.97
2023-02-03T06:38:21.392Z,22.96
2023-02-03T06:38:57.403Z,22.96
2023-02-03T06:39:34.164Z,22.96
2023-02-03T06:40:10.591Z,22.96
2023-02-03T06:40:46.141Z,22.97
2023-02-03T06:41:22.328Z,22.94
2023-02-03T06:41:58.728Z,22.96
2023-02-03T06:42:34.774Z,22.96
2023-02-03T06:43:11.010Z,22.93
2023-02-03T06:43:47.204Z,22.97
2023-02-03T06:44:23.650Z,22.94
2023-02-03T06:44:59.890Z,22.95
2023-02-03T06:45:39.665Z,22.92
2023-02-03T06:46:15.179Z,22.95
2023-02-03T06:46:51.602Z,22.99
2023-02-03T06:47:27.547Z,23.02
2023-02-03T06:48:03.381Z,23.01
2023-02-03T06:48:39.869Z,23.01
2023-02-03T06:49:15.944Z,22.98
2023-02-03T06:49:52.416Z,22.97
2023-02-03T06:50:28.525Z,22.97
2023-02-03T06:51:04.118Z,22.95
2023-02-03T06:51:39.418Z,22.90
2023-02-03T06:52:15.852Z,22.95
2023-02-03T06:52:52.140Z,22.95
2023-02-03T06:53:28.812Z,22.97
2023-02-03T06:54:04.977Z,22.99
2023-02-03T06:54:41.753Z,22.98
2023-02-03T06:55:18.641Z,22.97
2023-02-03T06:55:54.551Z,22.97
2023-02-03T06:56:30.901Z,22.97
2023-02-03T06:57:06.556Z,23.01
2023-02-03T06:57:42.956Z,23.02
2023-02-03T06:58:19.582Z,23.01
2023-02-03T06:58:56.430Z,22.99
2023-02-03T06:59:33.264Z,22.98
2023-02-03T07:00:10.872Z,22.97
2023-02-03T07:00:47.341Z,22.98
2023-02-03T07:01:23.951Z,22.96
2023-02-03T07:01:59.932Z,22.99
2023-02-03T07:02:35.663Z,22.99
2023-02-03T07:03:11.936Z,23.00
2023-02-03T07:03:48.366Z,23.01
2023-02-03T07:04:24.502Z,23.00
2023-02-03T07:05:00.370Z,23.01
2023-02-03T07:05:36.899Z,22.96
2023-02-03T07:06:13.227Z,22.97
2023-02-03T07:06:49.603Z,22.95
2023-02-03T07:07:25.992Z,22.95
2023-02-03T07:08:02.288Z,22.94
2023-02-03T07:08:38.723Z,22.96
2023-02-03T07:09:15.137Z,22.95
2023-02-03T07:09:50.575Z,22.94
2023-02-03T07:10:27.094Z,22.95
2023-02-03T07:11:03.122Z,22.97
2023-02-03T07:11:39.351Z,22.98
2023-02-03T07:12:15.568Z,23.00
2023-02-03T07:12:51.639Z,23.00
2023-02-03T07:13:28.325Z,23.00
2023-02-03T07:14:04.784Z,22.98
2023-02-03T07:14:40.613Z,22.97
2023-02-03T07:15:16.276Z,23.00
2023-02-03T07:15:52.287Z,22.98
2023-02-03T07:16:29.111Z,22.97
2023-02-03T07:17:05.261Z,22.96
2023-02-03T07:17:41.417Z,22.98
2023-02-03T07:18:25.715Z,22.95
2023-02-03T07:19:12.678Z,22.98
2023-02-03T07:19:48.671Z,22.98
2023-02-03T07:20:24.918Z,22.99
2023-02-03T07:21:00.876Z,22.99
2023-02-03T07:21:38.304Z,23.01
2023-02-03T07:22:14.069Z,23.02
2023-02-03T07:22:50.465Z,23.03
2023-02-03T07:23:27.206Z,22.99
2023-02-03T07:24:03.625Z,23.01
2023-02-03T07:24:40.026Z,22.97
2023-02-03T07:25:15.895Z,22.99
2023-02-03T07:25:51.927Z,22.98
2023-02-03T07:26:27.655Z,22.98
2023-02-03T07:27:04.650Z,22.98
2023-02-03T07:27:40.423Z,22.98
2023-02-03T07:28:17.003Z,22.96
2023-02-03T07:28:53.620Z,22.96
2023-02-03T07:29:29.755Z,22.95
2023-02-03T07:30:07.102Z,22.98
2023-02-03T07:30:43.131Z,22.94
2023-02-03T07:31:19.159Z,22.93
2023-02-03T07:31:55.358Z,22.96
2023-02-03T07:32:32.864Z,22.97
2023-02-03T07:33:09.096Z,22.96
2023-02-03T07:33:45.347Z,22.98
2023-02-03T07:34:21.871Z,22.99
2023-02-03T07:34:58.376Z,22.99
2023-02-03T07:35:34.596Z,22.98
2023-02-03T07:36:10.331Z,23.00
2023-02-03T07:36:47.108Z,22.99
2023-02-03T07:37:22.726Z,22.97
2023-02-03T07:37:59.631Z,22.97
2023-02-03T07:38:35.937Z,22.98
2023-02-03T07:39:12.273Z,22.95
2023-02-03T07:39:49.097Z,22.94
2023-02-03T07:40:26.259Z,22.95
2023-02-03T07:41:02.311Z,22.95
2023-02-03T07:41:38.336Z,22.93
2023-02-03T07:42:14.554Z,22.95
2023-02-03T07:42:50.611Z,22.96
2023-02-03T07:43:26.985Z,22.95
2023-02-03T07:44:03.994Z,22.95
2023-02-03T07:44:40.048Z,22.96
2023-02-03T07:45:16.431Z,22.93
2023-02-03T07:45:52.449Z,22.95
2023-02-03T07:46:28.653Z,22.96
2023-02-03T07:47:04.354Z,22.97
2023-02-03T07:47:41.259Z,22.97
2023-02-03T07:48:17.195Z,22.95